Time;durP1;ratioP1;P1;durP2;ratioP2;P2;SDS_P1;SDS_P2;PMS_P1;PMS_P2;Temp;Humidity;BMP_temperature;BMP_pressure;BME280_temperature;BME280_humidity;BME280_pressure;Samples;Min_cycle;Max_cycle;Signal;HPM_P1;HPM_P2
2022/03/10 00:02:26;;;;;;;28.10;17.45;;;;;;;;;;5048547;28;20049;-57
2022/03/10 00:07:59;;;;;;;28.20;17.20;;;;;;;;;;5047855;28;20079;-56
2022/03/10 00:10:32;;;;;;;29.98;18.45;;;;;;;;;;5068421;28;20056;-57
2022/03/10 00:13:26;;;;;;;;;;;;;;;;;;;;;
2022/03/10 00:16:25;;;;;;;28.25;16.48;;;;;;;;;;5064423;28;20094;-56
2022/03/10 00:22:37;;;;;;;41.40;18.65;;;;;;;;;;5109698;28;20086;-55
2022/03/10 00:25:42;;;;;;;44.35;18.73;;;;;;;;;;5067546;28;20025;-54
2022/03/10 00:31:37;;;;;;;30.73;15.75;;;;;;;;;;5064198;28;20041;-57
2022/03/10 00:37:05;;;;;;;29.63;15.55;;;;;;;;;;5067811;28;20036;-56
2022/03/10 00:39:48;;;;;;;34.40;17.00;;;;;;;;;;5067921;28;20033;-57
2022/03/10 00:48:19;;;;;;;31.35;16.63;;;;;;;;;;5101629;28;20039;-57
2022/03/10 00:50:46;;;;;;;33.88;16.33;;;;;;;;;;5110125;28;20047;-55
2022/03/10 00:53:31;;;;;;;23.75;16.30;;;;;;;;;;5109653;28;20039;-56
2022/03/10 00:56:11;;;;;;;35.10;17.00;;;;;;;;;;5109300;28;20020;-56
2022/03/10 00:59:00;;;;;;;;;;;;;;;;;;;;;
2022/03/10 01:04:55;;;;;;;60.70;23.30;;;;;;;;;;5105732;28;20050;-56
2022/03/10 01:14:21;;;;;;;39.43;18.33;;;;;;;;;;5109107;28;20036;-57
2022/03/10 01:26:50;;;;;;;26.10;12.25;;;;;;;;;;5054846;28;20044;-55
2022/03/10 01:32:55;;;;;;;27.95;14.05;;;;;;;;;;5007299;28;20073;-57
2022/03/10 01:35:46;;;;;;;24.02;13.77;;;;;;;;;;5008005;28;20030;-57
2022/03/10 01:38:39;;;;;;;28.00;14.23;;;;;;;;;;5007792;28;20058;-54
2022/03/10 01:41:20;;;;;;;28.42;15.20;;;;;;;;;;5006843;28;20034;-57
2022/03/10 01:44:08;;;;;;;23.30;12.52;;;;;;;;;;5057039;28;20051;-57
2022/03/10 01:46:38;;;;;;;30.13;12.32;;;;;;;;;;5107957;28;20024;-55
2022/03/10 01:49:37;;;;;;;21.25;9.68;;;;;;;;;;5108611;28;20378;-57
2022/03/10 01:52:27;;;;;;;25.47;11.93;;;;;;;;;;5080980;28;20040;-55
2022/03/10 01:58:03;;;;;;;21.50;14.38;;;;;;;;;;5104638;28;20036;-56
2022/03/10 02:01:18;;;;;;;39.95;17.25;;;;;;;;;;5108825;28;20048;-56
2022/03/10 02:06:57;;;;;;;17.52;12.27;;;;;;;;;;5046290;28;20037;-57
2022/03/10 02:12:46;;;;;;;17.33;12.52;;;;;;;;;;5045943;28;20095;-57
2022/03/10 02:18:22;;;;;;;12.85;9.45;;;;;;;;;;5045006;28;20033;-57
2022/03/10 02:20:48;;;;;;;16.75;9.82;;;;;;;;;;5045466;28;20034;-57
2022/03/10 02:23:17;;;;;;;15.70;9.77;;;;;;;;;;5044561;28;20095;-57
2022/03/10 02:25:59;;;;;;;12.63;9.03;;;;;;;;;;5045292;28;20045;-56
2022/03/10 02:29:00;;;;;;;13.57;9.40;;;;;;;;;;5045122;28;20043;-56
2022/03/10 02:31:49;;;;;;;10.95;8.25;;;;;;;;;;5045803;28;20041;-57
2022/03/10 02:47:18;;;;;;;15.07;10.20;;;;;;;;;;5025716;28;20500;-57
2022/03/10 02:53:10;;;;;;;13.98;9.10;;;;;;;;;;5001724;28;20066;-55
2022/03/10 02:56:21;;;;;;;17.63;10.37;;;;;;;;;;5006028;28;20034;-56
2022/03/10 02:59:09;;;;;;;15.23;10.63;;;;;;;;;;4989156;28;20034;-56
2022/03/10 03:01:58;;;;;;;17.85;10.40;;;;;;;;;;5005180;28;20124;-57
2022/03/10 03:04:33;;;;;;;11.67;9.33;;;;;;;;;;5005583;28;20043;-57
2022/03/10 03:07:29;;;;;;;17.57;11.87;;;;;;;;;;4989385;28;20492;-57
2022/03/10 03:12:52;;;;;;;15.87;12.70;;;;;;;;;;5084816;28;20582;-55
2022/03/10 03:18:35;;;;;;;22.30;12.57;;;;;;;;;;5068968;28;20044;-57
2022/03/10 03:24:09;;;;;;;;;;;;;;;;;;;;;
2022/03/10 03:27:01;;;;;;;18.77;14.47;;;;;;;;;;5106863;28;20052;-55
2022/03/10 03:29:58;;;;;;;25.23;14.70;;;;;;;;;;5107248;28;20035;-57
2022/03/10 03:33:08;;;;;;;25.23;17.30;;;;;;;;;;5092289;28;20028;-56
2022/03/10 03:35:43;;;;;;;19.27;15.03;;;;;;;;;;5110448;28;20016;-57
2022/03/10 03:41:19;;;;;;;21.63;15.20;;;;;;;;;;5110421;28;20059;-55
2022/03/10 03:49:56;;;;;;;21.57;16.00;;;;;;;;;;5110112;28;20065;-57
2022/03/10 03:52:45;;;;;;;26.47;15.67;;;;;;;;;;5110375;28;20088;-57
2022/03/10 03:55:25;;;;;;;26.90;15.97;;;;;;;;;;5091397;28;20050;-53
2022/03/10 04:01:24;;;;;;;15.57;11.73;;;;;;;;;;5014747;28;20033;-55
2022/03/10 04:03:54;;;;;;;18.93;14.13;;;;;;;;;;5068033;28;20119;-54
2022/03/10 04:06:59;;;;;;;18.87;14.30;;;;;;;;;;5050130;28;20040;-56
2022/03/10 04:09:43;;;;;;;21.30;12.93;;;;;;;;;;5064987;28;20060;-54
2022/03/10 04:12:39;;;;;;;23.27;14.23;;;;;;;;;;5076807;28;20111;-57
2022/03/10 04:25:08;;;;;;;;;;;;;;;;;;;;;
2022/03/10 04:27:58;;;;;;;16.77;12.13;;;;;;;;;;5067181;28;20096;-57
2022/03/10 04:33:30;;;;;;;17.57;11.50;;;;;;;;;;5055126;28;20481;-57
2022/03/10 04:36:23;;;;;;;16.10;12.50;;;;;;;;;;5055351;28;20047;-56
2022/03/10 04:39:19;;;;;;;15.67;10.87;;;;;;;;;;5032519;28;20069;-56
2022/03/10 04:42:20;;;;;;;14.67;10.03;;;;;;;;;;5054021;28;20036;-56
2022/03/10 04:45:19;;;;;;;17.70;11.55;;;;;;;;;;5054988;28;20059;-56
2022/03/10 04:48:06;;;;;;;20.00;10.70;;;;;;;;;;5085068;28;20036;-57
2022/03/10 04:50:51;;;;;;;15.67;10.17;;;;;;;;;;5098138;28;20027;-57
2022/03/10 04:53:44;;;;;;;16.07;11.80;;;;;;;;;;5097618;28;20042;-56
2022/03/10 04:59:32;;;;;;;;;;;;;;;;;;;;;
2022/03/10 05:11:39;;;;;;;19.40;12.30;;;;;;;;;;5084892;28;20036;-57
2022/03/10 05:20:13;;;;;;;14.13;10.40;;;;;;;;;;5032857;28;19909;-55
2022/03/10 05:22:55;;;;;;;19.00;12.60;;;;;;;;;;5030493;28;20442;-56
2022/03/10 05:25:51;;;;;;;28.90;20.50;;;;;;;;;;5077472;28;20185;-57
2022/03/10 05:31:32;;;;;;;23.27;13.07;;;;;;;;;;5096901;28;20047;-57
2022/03/10 05:37:43;;;;;;;;;;;;;;;;;;;;;
2022/03/10 05:40:28;;;;;;;17.23;12.40;;;;;;;;;;5096080;28;20355;-58
2022/03/10 05:42:55;;;;;;;14.40;10.97;;;;;;;;;;5075397;28;20516;-56
2022/03/10 05:48:43;;;;;;;18.57;11.47;;;;;;;;;;5095090;28;20035;-54
2022/03/10 05:51:41;;;;;;;16.10;12.37;;;;;;;;;;5095254;28;20060;-55
2022/03/10 05:54:43;;;;;;;17.87;12.80;;;;;;;;;;5095756;28;20020;-57
2022/03/10 05:57:28;;;;;;;12.87;10.23;;;;;;;;;;5095861;28;20023;-56
2022/03/10 06:00:03;;;;;;;16.60;11.93;;;;;;;;;;5076688;28;20035;-56
2022/03/10 06:02:53;;;;;;;16.60;11.00;;;;;;;;;;5096079;28;20457;-55
2022/03/10 06:05:29;;;;;;;22.23;11.05;;;;;;;;;;5093566;28;20050;-57
2022/03/10 06:08:29;;;;;;;14.30;11.27;;;;;;;;;;5094952;28;20110;-55
2022/03/10 06:11:16;;;;;;;13.05;9.88;;;;;;;;;;5051882;28;20041;-56
2022/03/10 06:17:17;;;;;;;14.83;10.30;;;;;;;;;;5012595;28;20077;-57
2022/03/10 06:20:19;;;;;;;;;;;;;;;;;;;;;
2022/03/10 06:26:14;;;;;;;16.83;10.00;;;;;;;;;;5004915;28;20384;-55
2022/03/10 06:29:04;;;;;;;22.92;11.65;;;;;;;;;;5013210;28;20038;-56
2022/03/10 06:32:07;;;;;;;;;;;;;;;;;;;;;
2022/03/10 06:35:11;;;;;;;17.20;12.43;;;;;;;;;;5048517;28;20024;-55
2022/03/10 06:37:54;;;;;;;12.10;10.17;;;;;;;;;;5035766;28;20067;-57
2022/03/10 06:40:38;;;;;;;14.63;10.77;;;;;;;;;;5063115;28;20154;-55
2022/03/10 06:43:45;;;;;;;17.77;13.00;;;;;;;;;;5076934;28;20039;-56
2022/03/10 06:46:42;;;;;;;24.80;11.40;;;;;;;;;;5095462;28;20020;-54
2022/03/10 06:55:28;;;;;;;19.23;11.70;;;;;;;;;;5012828;28;20033;-54
2022/03/10 07:01:36;;;;;;;18.30;11.77;;;;;;;;;;5076553;28;20105;-57
2022/03/10 07:04:13;;;;;;;15.27;10.83;;;;;;;;;;5076767;28;20458;-56
2022/03/10 07:07:07;;;;;;;18.77;12.20;;;;;;;;;;5094817;28;20032;-54
2022/03/10 07:09:38;;;;;;;13.97;10.57;;;;;;;;;;5093501;28;20048;-56
2022/03/10 07:12:40;;;;;;;;;;;;;;;;;;;;;
2022/03/10 07:15:16;;;;;;;15.33;11.07;;;;;;;;;;5090497;28;20092;-56
2022/03/10 07:18:21;;;;;;;13.40;10.10;;;;;;;;;;5077474;28;20437;-54
2022/03/10 07:21:08;;;;;;;19.67;9.93;;;;;;;;;;5096329;28;20028;-56
2022/03/10 07:24:08;;;;;;;13.70;11.17;;;;;;;;;;5075453;28;20492;-57
2022/03/10 07:27:07;;;;;;;13.45;9.00;;;;;;;;;;5076315;28;20622;-51
2022/03/10 07:29:59;;;;;;;15.57;9.13;;;;;;;;;;5093314;28;20024;-53
2022/03/10 07:32:37;;;;;;;15.77;9.40;;;;;;;;;;5094720;28;20032;-57
2022/03/10 07:35:19;;;;;;;12.43;8.10;;;;;;;;;;5093527;28;20099;-56
2022/03/10 07:38:03;;;;;;;13.00;9.73;;;;;;;;;;5093954;28;20436;-55
2022/03/10 07:44:05;;;;;;;;;;;;;;;;;;;;;
2022/03/10 07:46:43;;;;;;;12.73;8.23;;;;;;;;;;5093962;28;20335;-56
2022/03/10 07:49:22;;;;;;;11.68;8.73;;;;;;;;;;5074684;28;20106;-55
2022/03/10 07:52:13;;;;;;;;;;;;;;;;;;;;;
2022/03/10 07:54:52;;;;;;;12.98;9.40;;;;;;;;;;5093726;28;20031;-56
2022/03/10 08:03:51;;;;;;;14.32;8.57;;;;;;;;;;5055939;28;20248;-55
2022/03/10 08:06:39;;;;;;;10.57;7.90;;;;;;;;;;5094141;28;20103;-56
2022/03/10 08:09:47;;;;;;;15.98;8.68;;;;;;;;;;5092966;28;20060;-56
2022/03/10 08:12:29;;;;;;;17.55;9.48;;;;;;;;;;5094160;28;20032;-57
2022/03/10 08:24:03;;;;;;;9.15;7.30;;;;;;;;;;4994939;28;20038;-57
2022/03/10 08:27:15;;;;;;;11.23;7.57;;;;;;;;;;5014584;28;20023;-56
2022/03/10 08:30:13;;;;;;;17.48;7.82;;;;;;;;;;5015397;28;20084;-56
2022/03/10 08:32:51;;;;;;;12.15;7.35;;;;;;;;;;5016047;28;20029;-54
2022/03/10 08:35:44;;;;;;;10.43;7.45;;;;;;;;;;5013724;28;20030;-55
2022/03/10 08:44:48;;;;;;;13.50;8.35;;;;;;;;;;4994430;28;20108;-55
2022/03/10 08:47:44;;;;;;;11.43;6.65;;;;;;;;;;5009733;28;20034;-57
2022/03/10 08:53:14;;;;;;;11.45;7.07;;;;;;;;;;5096950;28;20090;-57
2022/03/10 08:56:07;;;;;;;9.23;7.15;;;;;;;;;;5097291;28;20028;-57
2022/03/10 08:59:06;;;;;;;;;;;;;;;;;;;;;
2022/03/10 09:02:04;;;;;;;13.65;7.60;;;;;;;;;;5090811;28;20115;-55
2022/03/10 09:07:30;;;;;;;12.10;8.25;;;;;;;;;;5097124;28;20043;-54
2022/03/10 09:10:15;;;;;;;12.10;8.10;;;;;;;;;;5096571;28;20047;-55
2022/03/10 09:13:25;;;;;;;;;;;;;;;;;;;;;
2022/03/10 09:16:29;;;;;;;10.40;7.50;;;;;;;;;;5093472;28;20106;-55
2022/03/10 09:19:19;;;;;;;;;;;;;;;;;;;;;
2022/03/10 09:22:09;;;;;;;11.85;7.05;;;;;;;;;;5091727;28;20358;-53
2022/03/10 09:28:01;;;;;;;11.77;7.75;;;;;;;;;;5077796;28;20028;-57
2022/03/10 09:34:10;;;;;;;16.05;7.45;;;;;;;;;;4984484;28;20395;-56
2022/03/10 09:40:10;;;;;;;10.95;7.63;;;;;;;;;;5015901;28;20387;-55
2022/03/10 09:42:45;;;;;;;9.55;7.68;;;;;;;;;;5014124;28;20613;-56
2022/03/10 09:45:37;;;;;;;9.85;6.80;;;;;;;;;;5035315;28;20029;-56
2022/03/10 09:48:35;;;;;;;11.45;7.43;;;;;;;;;;5032089;28;20387;-60
2022/03/10 09:51:04;;;;;;;11.65;6.75;;;;;;;;;;5032168;28;20041;-57
2022/03/10 09:53:39;;;;;;;8.30;6.80;;;;;;;;;;5032438;28;20032;-57
2022/03/10 09:56:24;;;;;;;9.40;6.07;;;;;;;;;;5032556;28;20029;-55
2022/03/10 09:59:18;;;;;;;10.88;6.97;;;;;;;;;;5033439;28;20029;-57
2022/03/10 10:05:36;;;;;;;7.50;6.35;;;;;;;;;;5091906;28;20059;-55
2022/03/10 10:08:18;;;;;;;9.40;6.50;;;;;;;;;;5092786;28;20032;-57
2022/03/10 10:14:14;;;;;;;9.63;6.60;;;;;;;;;;5049557;28;20036;-57
2022/03/10 10:17:13;;;;;;;9.73;5.72;;;;;;;;;;5032482;28;20060;-57
2022/03/10 10:20:06;;;;;;;8.38;5.75;;;;;;;;;;5032708;28;20462;-57
2022/03/10 10:23:05;;;;;;;8.35;6.38;;;;;;;;;;5018128;28;20037;-56
2022/03/10 10:26:06;;;;;;;9.05;5.22;;;;;;;;;;5032270;28;20475;-56
2022/03/10 10:29:15;;;;;;;9.68;5.32;;;;;;;;;;4994725;28;20118;-57
2022/03/10 10:35:21;;;;;;;11.02;5.22;;;;;;;;;;5051924;28;20092;-55
2022/03/10 10:38:07;;;;;;;9.48;5.28;;;;;;;;;;5012209;28;20033;-57
2022/03/10 10:41:02;;;;;;;;;;;;;;;;;;;;;
2022/03/10 10:43:58;;;;;;;8.63;5.32;;;;;;;;;;5057925;28;20041;-57
2022/03/10 10:46:59;;;;;;;;;;;;;;;;;;;;;
2022/03/10 10:49:41;;;;;;;8.25;5.13;;;;;;;;;;5094371;28;20095;-57
2022/03/10 10:52:33;;;;;;;8.85;5.20;;;;;;;;;;5095210;28;20514;-57
2022/03/10 10:58:48;;;;;;;9.23;3.97;;;;;;;;;;5062948;28;20482;-58
2022/03/10 11:04:55;;;;;;;5.38;2.55;;;;;;;;;;5083924;28;20051;-57
2022/03/10 11:07:59;;;;;;;5.57;3.22;;;;;;;;;;5078237;28;20028;-57
2022/03/10 11:10:46;;;;;;;5.72;3.03;;;;;;;;;;5075259;28;20343;-57
2022/03/10 11:13:35;;;;;;;3.92;3.08;;;;;;;;;;5077066;28;20039;-57
2022/03/10 11:16:26;;;;;;;7.00;3.25;;;;;;;;;;5091779;28;20056;-57
2022/03/10 11:19:09;;;;;;;8.23;3.67;;;;;;;;;;5094560;28;20028;-57
2022/03/10 11:21:38;;;;;;;9.82;3.03;;;;;;;;;;5067439;28;20032;-57
2022/03/10 11:24:22;;;;;;;4.97;2.88;;;;;;;;;;5093973;28;20020;-58
2022/03/10 11:27:18;;;;;;;;;;;;;;;;;;;;;
2022/03/10 11:30:03;;;;;;;3.80;2.10;;;;;;;;;;5046806;28;20486;-58
2022/03/10 11:33:21;;;;;;;4.68;2.65;;;;;;;;;;5093909;28;20119;-56
2022/03/10 11:36:03;;;;;;;4.60;2.13;;;;;;;;;;5075706;28;20059;-58
2022/03/10 11:38:59;;;;;;;5.00;2.78;;;;;;;;;;5095025;28;20476;-58
2022/03/10 11:41:35;;;;;;;11.25;3.20;;;;;;;;;;5075924;28;20047;-58
2022/03/10 11:44:26;;;;;;;4.60;2.92;;;;;;;;;;5072141;28;20501;-57
2022/03/10 11:47:27;;;;;;;5.93;2.90;;;;;;;;;;5094381;28;20073;-57
2022/03/10 11:53:44;;;;;;;4.82;2.90;;;;;;;;;;5052767;28;20059;-57
2022/03/10 11:59:44;;;;;;;3.85;2.17;;;;;;;;;;5082361;28;20032;-58
2022/03/10 12:02:43;;;;;;;5.25;3.10;;;;;;;;;;5078303;28;20032;-58
2022/03/10 12:08:31;;;;;;;4.55;2.53;;;;;;;;;;5078346;28;20123;-57
2022/03/10 12:14:27;;;;;;;4.28;2.45;;;;;;;;;;5065587;28;20127;-57
2022/03/10 12:17:21;;;;;;;5.03;2.80;;;;;;;;;;5078845;28;20487;-57
2022/03/10 12:20:18;;;;;;;;;;;;;;;;;;;;;
2022/03/10 12:26:44;;;;;;;3.25;2.55;;;;;;;;;;5097249;28;20580;-58
2022/03/10 12:29:14;;;;;;;5.13;2.78;;;;;;;;;;5097184;28;20074;-57
2022/03/10 12:31:41;;;;;;;3.37;2.30;;;;;;;;;;5062788;28;20500;-58
2022/03/10 12:40:33;;;;;;;;;;;;;;;;;;5051720;28;20046;-58
2022/03/10 12:46:20;;;;;;;7.57;3.75;;;;;;;;;;5085710;28;20115;-58
2022/03/10 12:49:10;;;;;;;4.32;3.20;;;;;;;;;;5081476;28;20028;-57
2022/03/10 12:51:40;;;;;;;5.22;3.65;;;;;;;;;;5096927;28;20099;-57
2022/03/10 12:57:29;;;;;;;7.22;4.30;;;;;;;;;;5076197;28;20489;-57
2022/03/10 13:00:09;;;;;;;6.32;3.58;;;;;;;;;;5092236;28;20036;-58
2022/03/10 13:06:12;;;;;;;5.10;3.03;;;;;;;;;;5097191;28;20032;-57
2022/03/10 13:08:57;;;;;;;5.85;3.20;;;;;;;;;;5097161;28;20036;-57
2022/03/10 13:11:48;;;;;;;4.07;2.45;;;;;;;;;;5078641;28;20162;-57
2022/03/10 13:17:06;;;;;;;5.15;2.33;;;;;;;;;;5033991;28;20223;-57
2022/03/10 13:19:54;;;;;;;6.75;3.70;;;;;;;;;;5069724;28;20056;-58
2022/03/10 13:22:43;;;;;;;;;;;;;;;;;;;;;
2022/03/10 13:34:51;;;;;;;3.80;3.28;;;;;;;;;;4936236;29;20267;-58
2022/03/10 13:37:23;;;;;;;4.88;3.13;;;;;;;;;;4920610;29;20542;-57
2022/03/10 13:40:15;;;;;;;10.75;4.78;;;;;;;;;;5048566;28;20042;-58
2022/03/10 13:46:09;;;;;;;4.35;3.50;;;;;;;;;;5084949;28;20031;-58
2022/03/10 13:51:59;;;;;;;8.43;4.45;;;;;;;;;;5013278;28;20026;-56
2022/03/10 13:57:39;;;;;;;5.93;4.18;;;;;;;;;;5095939;28;20030;-58
2022/03/10 14:00:24;;;;;;;6.15;3.60;;;;;;;;;;5096580;28;20079;-57
2022/03/10 14:03:34;;;;;;;7.72;4.63;;;;;;;;;;5096601;28;20036;-57
2022/03/10 14:06:07;;;;;;;10.48;4.07;;;;;;;;;;5015663;28;20112;-57
2022/03/10 14:11:57;;;;;;;5.95;4.13;;;;;;;;;;5009029;28;20103;-57
2022/03/10 14:15:11;;;;;;;;;;;;;;;;;;;;;
2022/03/10 14:17:48;;;;;;;5.63;4.57;;;;;;;;;;5094934;28;20385;-57
2022/03/10 14:20:46;;;;;;;5.22;3.53;;;;;;;;;;5097031;28;20016;-58
2022/03/10 14:23:28;;;;;;;5.25;3.78;;;;;;;;;;5050576;28;20061;-57
2022/03/10 14:26:33;;;;;;;7.90;3.47;;;;;;;;;;5047367;28;20143;-58
2022/03/10 14:29:28;;;;;;;6.63;3.22;;;;;;;;;;5047021;28;20061;-57
2022/03/10 14:32:06;;;;;;;4.78;3.53;;;;;;;;;;5052288;28;20526;-57
2022/03/10 14:34:39;;;;;;;6.07;3.83;;;;;;;;;;5052606;28;20155;-58
2022/03/10 14:40:53;;;;;;;4.75;3.38;;;;;;;;;;5032045;28;20057;-57
2022/03/10 14:52:28;;;;;;;5.10;3.95;;;;;;;;;;4985153;28;20125;-58
2022/03/10 14:55:26;;;;;;;9.60;3.90;;;;;;;;;;4973720;28;20121;-57
2022/03/10 15:01:13;;;;;;;;;;;;;;;;;;4973370;28;20038;-57
2022/03/10 15:03:46;;;;;;;4.72;3.45;;;;;;;;;;5004830;28;19913;-57
2022/03/10 15:06:32;;;;;;;4.70;3.33;;;;;;;;;;5032368;28;20030;-57
2022/03/10 15:09:07;;;;;;;5.15;3.03;;;;;;;;;;5016318;28;20033;-58
2022/03/10 15:17:38;;;;;;;5.93;4.43;;;;;;;;;;5031791;28;20056;-58
2022/03/10 15:20:44;;;;;;;5.22;3.50;;;;;;;;;;5015259;28;20034;-57
2022/03/10 15:23:25;;;;;;;5.82;3.85;;;;;;;;;;5015718;28;20029;-57
2022/03/10 15:25:59;;;;;;;5.95;4.35;;;;;;;;;;5062918;28;20469;-58
2022/03/10 15:31:42;;;;;;;5.00;3.78;;;;;;;;;;5098683;28;20035;-57
2022/03/10 15:34:36;;;;;;;7.30;4.55;;;;;;;;;;5099064;28;20028;-57
2022/03/10 15:40:13;;;;;;;5.97;4.13;;;;;;;;;;5100320;28;20493;-56
2022/03/10 15:42:41;;;;;;;6.32;4.13;;;;;;;;;;5077948;28;20044;-57
2022/03/10 15:48:24;;;;;;;13.05;4.63;;;;;;;;;;5065590;28;20523;-56
2022/03/10 15:51:03;;;;;;;5.90;3.85;;;;;;;;;;5055341;28;20041;-57
2022/03/10 15:53:54;;;;;;;4.57;3.63;;;;;;;;;;5054830;28;20025;-57
2022/03/10 15:56:46;;;;;;;7.15;4.70;;;;;;;;;;5054651;28;20437;-57
2022/03/10 15:59:23;;;;;;;6.25;4.35;;;;;;;;;;5038982;28;20021;-56
2022/03/10 16:07:54;;;;;;;10.20;4.82;;;;;;;;;;5014974;28;20083;-57
2022/03/10 16:14:00;;;;;;;6.32;4.45;;;;;;;;;;5047062;28;20041;-57
2022/03/10 16:16:47;;;;;;;9.63;4.70;;;;;;;;;;5051850;28;20033;-57
2022/03/10 16:22:51;;;;;;;7.07;4.47;;;;;;;;;;4975651;28;20133;-57
2022/03/10 16:25:46;;;;;;;7.55;5.10;;;;;;;;;;4975409;28;20027;-57
2022/03/10 16:28:29;;;;;;;5.95;4.07;;;;;;;;;;4975759;28;20529;-57
2022/03/10 16:34:39;;;;;;;6.00;4.28;;;;;;;;;;4898746;29;20029;-56
2022/03/10 16:37:15;;;;;;;;;;;;;;;;;;4905350;28;20112;-56
2022/03/10 16:43:16;;;;;;;5.18;3.92;;;;;;;;;;5069583;28;20044;-57
2022/03/10 16:46:11;;;;;;;5.53;4.18;;;;;;;;;;5076260;28;20386;-57
2022/03/10 16:51:49;;;;;;;4.20;3.80;;;;;;;;;;5077376;28;20454;-57
2022/03/10 16:57:37;;;;;;;5.85;4.25;;;;;;;;;;5075966;28;20031;-57
2022/03/10 17:00:30;;;;;;;6.75;5.28;;;;;;;;;;5058578;28;20036;-57
2022/03/10 17:02:58;;;;;;;4.93;4.32;;;;;;;;;;5047219;28;20482;-57
2022/03/10 17:11:56;;;;;;;12.50;5.00;;;;;;;;;;5002861;28;20615;-57
2022/03/10 17:14:40;;;;;;;6.30;4.00;;;;;;;;;;5011016;28;20042;-57
2022/03/10 17:17:23;;;;;;;8.10;4.95;;;;;;;;;;5013948;28;20029;-57
2022/03/10 17:20:37;;;;;;;9.50;5.05;;;;;;;;;;4984542;28;20602;-57
2022/03/10 17:23:15;;;;;;;6.45;4.68;;;;;;;;;;4950547;29;20517;-57
2022/03/10 17:25:47;;;;;;;7.55;4.50;;;;;;;;;;4944396;29;20624;-57
2022/03/10 17:28:25;;;;;;;6.20;4.63;;;;;;;;;;5003687;28;20090;-58
2022/03/10 17:31:08;;;;;;;5.70;4.63;;;;;;;;;;4997687;28;20030;-57
2022/03/10 17:46:14;;;;;;;8.27;4.85;;;;;;;;;;5071324;28;20025;-57
2022/03/10 17:49:08;;;;;;;6.20;3.53;;;;;;;;;;5073958;28;20048;-57
2022/03/10 17:52:01;;;;;;;5.88;3.33;;;;;;;;;;5066486;28;20032;-56
2022/03/10 17:54:25;;;;;;;;;;;;;;;;;;5076084;28;20032;-56
2022/03/10 17:57:13;;;;;;;5.38;4.47;;;;;;;;;;5057955;28;19949;-57
2022/03/10 18:02:47;;;;;;;7.10;4.35;;;;;;;;;;5064566;28;20079;-57
2022/03/10 18:05:29;;;;;;;5.90;4.35;;;;;;;;;;5074430;28;20090;-57
2022/03/10 18:08:31;;;;;;;6.80;4.28;;;;;;;;;;5075915;28;20427;-57
2022/03/10 18:14:36;;;;;;;8.32;4.20;;;;;;;;;;5034239;28;20380;-55
2022/03/10 18:24:02;;;;;;;10.00;4.50;;;;;;;;;;5009531;28;20033;-58
2022/03/10 18:26:51;;;;;;;7.10;4.45;;;;;;;;;;5012377;28;20431;-57
2022/03/10 18:29:49;;;;;;;7.60;5.20;;;;;;;;;;5013194;28;20026;-57
2022/03/10 18:32:29;;;;;;;5.97;4.85;;;;;;;;;;4972343;28;20045;-56
2022/03/10 18:38:29;;;;;;;8.63;5.60;;;;;;;;;;4963787;28;20089;-57
2022/03/10 18:41:18;;;;;;;8.07;5.15;;;;;;;;;;4973395;28;20482;-57
2022/03/10 18:44:09;;;;;;;8.98;6.68;;;;;;;;;;4974769;28;20539;-56
2022/03/10 18:46:59;;;;;;;;;;;;;;;;;;;;;
2022/03/10 18:49:36;;;;;;;13.82;7.10;;;;;;;;;;5012410;28;20070;-56
2022/03/10 18:52:24;;;;;;;7.18;5.05;;;;;;;;;;5011836;28;20040;-57
2022/03/10 18:55:01;;;;;;;12.95;6.93;;;;;;;;;;5011601;28;20053;-56
2022/03/10 18:57:39;;;;;;;9.70;6.90;;;;;;;;;;5012800;28;20038;-57
2022/03/10 19:00:09;;;;;;;9.95;6.55;;;;;;;;;;5011923;28;20038;-55
2022/03/10 19:05:57;;;;;;;8.65;6.57;;;;;;;;;;5011818;28;20097;-57
2022/03/10 19:08:46;;;;;;;;;;;;;;;;;;;;;
2022/03/10 19:11:44;;;;;;;11.57;6.55;;;;;;;;;;5079045;28;20142;-57
2022/03/10 19:17:08;;;;;;;8.90;6.85;;;;;;;;;;5074309;28;20488;-57
2022/03/10 19:20:17;;;;;;;;;;;;;;;;;;;;;
2022/03/10 19:23:10;;;;;;;6.50;5.10;;;;;;;;;;5074015;28;20029;-57
2022/03/10 19:26:00;;;;;;;10.82;6.40;;;;;;;;;;5073771;28;20036;-57
2022/03/10 19:28:55;;;;;;;;;;;;;;;;;;;;;
2022/03/10 19:31:33;;;;;;;9.27;6.28;;;;;;;;;;5073810;28;20035;-55
2022/03/10 19:34:04;;;;;;;9.10;4.90;;;;;;;;;;5074728;28;20031;-57
2022/03/10 19:36:49;;;;;;;8.68;6.20;;;;;;;;;;5074048;28;20374;-57
2022/03/10 19:39:27;;;;;;;12.70;5.57;;;;;;;;;;5074220;28;20020;-56
2022/03/10 19:42:08;;;;;;;8.73;5.82;;;;;;;;;;5073684;28;20086;-56
2022/03/10 19:44:52;;;;;;;;;;;;;;;;;;5073000;28;20474;-57
2022/03/10 19:47:52;;;;;;;;;;;;;;;;;;;;;
2022/03/10 19:50:19;;;;;;;10.00;6.00;;;;;;;;;;5073831;28;20119;-57
2022/03/10 19:53:03;;;;;;;6.85;5.47;;;;;;;;;;5072369;28;20040;-56
2022/03/10 19:55:32;;;;;;;9.05;5.85;;;;;;;;;;5073604;28;20389;-58
2022/03/10 19:58:27;;;;;;;;;;;;;;;;;;;;;
2022/03/10 20:04:27;;;;;;;10.93;5.95;;;;;;;;;;5060296;28;20478;-58
2022/03/10 20:07:09;;;;;;;7.22;4.32;;;;;;;;;;5073385;28;20035;-57
2022/03/10 20:12:59;;;;;;;6.40;4.68;;;;;;;;;;5086254;28;20055;-59
2022/03/10 20:18:56;;;;;;;6.15;4.88;;;;;;;;;;5079738;28;20449;-58
2022/03/10 20:24:34;;;;;;;8.27;4.30;;;;;;;;;;5078030;28;20047;-57
2022/03/10 20:27:15;;;;;;;5.47;3.97;;;;;;;;;;5079567;28;20032;-56
2022/03/10 20:29:42;;;;;;;8.70;5.30;;;;;;;;;;5095788;28;20035;-58
2022/03/10 20:32:20;;;;;;;8.15;3.90;;;;;;;;;;5097378;28;20028;-57
2022/03/10 20:35:15;;;;;;;6.20;4.90;;;;;;;;;;5083135;28;20576;-57
2022/03/10 20:40:55;;;;;;;10.77;4.35;;;;;;;;;;5096348;28;20043;-58
2022/03/10 20:43:43;;;;;;;8.48;5.60;;;;;;;;;;5057500;28;20043;-58
2022/03/10 20:46:31;;;;;;;5.40;4.30;;;;;;;;;;5095418;28;20055;-57
2022/03/10 20:55:12;;;;;;;;;;;;;;;;;;;;;
2022/03/10 20:57:59;;;;;;;5.65;3.28;;;;;;;;;;5096923;28;20027;-56
2022/03/10 21:00:31;;;;;;;10.90;4.30;;;;;;;;;;5053996;28;20045;-55
2022/03/10 21:03:11;;;;;;;8.50;4.60;;;;;;;;;;5052888;28;20041;-57
2022/03/10 21:08:45;;;;;;;5.43;3.75;;;;;;;;;;5043377;28;20509;-56
2022/03/10 21:11:32;;;;;;;9.95;5.72;;;;;;;;;;5036991;28;20071;-58
2022/03/10 21:14:26;;;;;;;9.93;5.72;;;;;;;;;;5046598;28;20083;-58
2022/03/10 21:20:17;;;;;;;8.77;5.00;;;;;;;;;;5053694;28;20461;-58
2022/03/10 21:23:23;;;;;;;5.47;4.10;;;;;;;;;;5041688;28;20082;-58
2022/03/10 21:38:11;;;;;;;6.07;3.73;;;;;;;;;;5096308;28;20059;-58
2022/03/10 21:41:08;;;;;;;4.50;3.33;;;;;;;;;;5062859;28;20044;-57
2022/03/10 21:49:38;;;;;;;6.35;4.60;;;;;;;;;;5053789;28;20040;-58
2022/03/10 21:52:29;;;;;;;5.30;3.55;;;;;;;;;;5063455;28;20039;-57
2022/03/10 21:55:25;;;;;;;;;;;;;;;;;;;;;
2022/03/10 21:58:32;;;;;;;4.35;3.50;;;;;;;;;;5088707;28;20069;-58
2022/03/10 22:01:16;;;;;;;5.43;3.58;;;;;;;;;;5096819;28;20028;-58
2022/03/10 22:04:15;;;;;;;;;;;;;;;;;;;;;
2022/03/10 22:13:29;;;;;;;4.78;3.17;;;;;;;;;;5062906;28;20068;-58
2022/03/10 22:16:05;;;;;;;4.55;3.25;;;;;;;;;;5030147;28;20052;-58
2022/03/10 22:19:06;;;;;;;5.55;3.42;;;;;;;;;;5063957;28;20442;-56
2022/03/10 22:21:40;;;;;;;4.40;3.10;;;;;;;;;;5024092;28;20124;-56
2022/03/10 22:30:31;;;;;;;;;;;;;;;;;;;;;
2022/03/10 22:33:23;;;;;;;5.25;3.33;;;;;;;;;;5021448;28;20100;-58
2022/03/10 22:36:08;;;;;;;6.30;4.50;;;;;;;;;;5041802;28;20087;-58
2022/03/10 22:41:42;;;;;;;4.43;3.30;;;;;;;;;;5101778;28;20059;-57
2022/03/10 22:44:37;;;;;;;4.85;3.40;;;;;;;;;;5106704;28;20465;-57
2022/03/10 22:59:25;;;;;;;9.55;3.88;;;;;;;;;;5044828;28;20030;-57
2022/03/10 23:02:02;;;;;;;5.60;3.90;;;;;;;;;;5104813;28;20378;-58
2022/03/10 23:07:55;;;;;;;7.18;4.65;;;;;;;;;;5107417;28;20031;-58
2022/03/10 23:11:00;;;;;;;5.50;4.63;;;;;;;;;;5102599;28;20081;-58
2022/03/10 23:13:40;;;;;;;5.63;3.83;;;;;;;;;;5100367;28;20048;-56
2022/03/10 23:16:17;;;;;;;8.48;5.75;;;;;;;;;;5107297;28;20032;-56
2022/03/10 23:18:52;;;;;;;7.82;4.75;;;;;;;;;;5107393;28;20051;-54
2022/03/10 23:21:31;;;;;;;7.28;5.35;;;;;;;;;;5107117;28;20073;-57
2022/03/10 23:27:06;;;;;;;5.45;4.45;;;;;;;;;;5097376;28;20047;-54
2022/03/10 23:29:41;;;;;;;8.25;5.25;;;;;;;;;;5107525;28;20471;-56
2022/03/10 23:32:32;;;;;;;7.65;5.20;;;;;;;;;;5088840;28;20028;-57
2022/03/10 23:35:21;;;;;;;7.38;5.38;;;;;;;;;;5107743;28;20111;-58
2022/03/10 23:37:53;;;;;;;7.15;5.72;;;;;;;;;;5084259;28;20039;-56
2022/03/10 23:40:48;;;;;;;7.07;4.72;;;;;;;;;;5108262;28;20031;-57
2022/03/10 23:46:23;;;;;;;9.60;6.18;;;;;;;;;;5097358;28;20032;-54
2022/03/10 23:49:03;;;;;;;9.10;6.20;;;;;;;;;;5111567;28;20024;-57
2022/03/10 23:52:00;;;;;;;7.50;5.70;;;;;;;;;;5112044;28;20046;-58
2022/03/10 23:54:28;;;;;;;10.13;6.35;;;;;;;;;;5069476;28;20033;-58
2022/03/10 23:57:13;;;;;;;7.88;6.38;;;;;;;;;;5109523;28;20040;-58
